»·PEaware :: N261AB KBFL-KSAC

N261AB :: KBFL-KSAC

FLIGHT INFORMATION

Flight Status: Arrived
Operator: Privately registered:
United States
More flights under this callsign
Pilot: Brian K. (18535)
Aircraft: Unknown
(DA62)
More flights by this aircraft type
Origin: KBFL Meadows
United States
Destination: KSAC Sacramento Executive
United States
More flights between these airports :: More routes between these airports
Route: MEADO3 EHF V23 SAC
File this flight plan on PilotEdge
Remarks:
Altitude:
(Current/Filed)
4,000ft
Speed:
(Current/Filed)
160kts
Departed: 15-Apr-19 05:18 PM
Arrived: 15-Apr-19 06:50 PM
Distance/Time
Traveled:
219nm/1:32
Distance/Time
To Go:
Arrived

Flight Plot

Page will automatically refresh every two minutes.

Flight plan parsing failed; only flown route is shown


Map Options




Map Legend


Flown Route
Filed Route
Departure Airport
Arrival Airport
Navaid (VOR, NDB)
Fix

Horizontal Profiles

Position Reports

Time Latitude Longitude Heading Altitude Ground
Speed
15-Apr-19 17:00 35.429516 -119.046647 226 508ft 0kts
15-Apr-19 17:01 35.429516 -119.046647 226 508ft 0kts
15-Apr-19 17:01 35.429516 -119.046647 226 508ft 0kts
15-Apr-19 17:02 35.429516 -119.046647 226 508ft 0kts
15-Apr-19 17:04 35.429516 -119.046647 226 508ft 0kts
15-Apr-19 17:04 35.429516 -119.046647 226 508ft 0kts
15-Apr-19 17:05 35.429516 -119.046647 226 508ft 0kts
15-Apr-19 17:06 35.429516 -119.046647 226 508ft 0kts
15-Apr-19 17:07 35.429516 -119.046647 226 508ft 0kts
15-Apr-19 17:08 35.429516 -119.046647 226 508ft 0kts
15-Apr-19 17:09 35.429516 -119.046647 226 508ft 0kts
15-Apr-19 17:10 35.429013 -119.046575 215 508ft 0kts
15-Apr-19 17:11 35.429003 -119.046583 214 508ft 1kts
15-Apr-19 17:12 35.427781 -119.046602 134 508ft 8kts
15-Apr-19 17:13 35.425849 -119.044643 220 508ft 0kts
15-Apr-19 17:14 35.425849 -119.044643 220 508ft 0kts
15-Apr-19 17:15 35.425849 -119.044643 220 508ft 0kts
15-Apr-19 17:16 35.425822 -119.046472 314 508ft 11kts
15-Apr-19 17:17 35.441483 -119.068244 312 947ft 120kts
15-Apr-19 17:18 35.465059 -119.099396 312 1660ft 127kts
15-Apr-19 17:19 35.489524 -119.131562 312 2358ft 130kts
15-Apr-19 17:20 35.514148 -119.164548 312 3058ft 132kts
15-Apr-19 17:21 35.539189 -119.197655 312 3755ft 132kts
15-Apr-19 17:22 35.566144 -119.232667 312 3995ft 151kts
15-Apr-19 17:23 35.595973 -119.271096 312 3997ft 156kts
15-Apr-19 17:24 35.634655 -119.289398 2 4003ft 165kts
15-Apr-19 17:25 35.680967 -119.283758 2 4011ft 167kts
15-Apr-19 17:26 35.726679 -119.278141 2 4011ft 163kts
15-Apr-19 17:27 35.771825 -119.272552 2 4012ft 163kts
15-Apr-19 17:28 35.817130 -119.267151 354 4007ft 162kts
15-Apr-19 17:29 35.858510 -119.286176 334 4012ft 158kts
15-Apr-19 17:30 35.899351 -119.307133 334 4012ft 158kts
15-Apr-19 17:31 35.940060 -119.328024 334 4011ft 157kts
15-Apr-19 17:32 35.980471 -119.348731 334 4011ft 157kts
15-Apr-19 17:33 36.020888 -119.369466 334 3975ft 157kts
15-Apr-19 17:34 36.061206 -119.390162 334 3974ft 155kts
15-Apr-19 17:35 36.101159 -119.410659 335 3974ft 155kts
15-Apr-19 17:36 36.141359 -119.431200 335 3976ft 155kts
15-Apr-19 17:37 36.181310 -119.451633 335 3976ft 155kts
15-Apr-19 17:38 36.221192 -119.472052 336 3976ft 155kts
15-Apr-19 17:39 36.261093 -119.492504 336 3976ft 155kts
15-Apr-19 17:40 36.301092 -119.513024 336 3976ft 155kts
15-Apr-19 17:41 36.340961 -119.533502 336 3976ft 154kts
15-Apr-19 17:42 36.380749 -119.553968 336 3976ft 154kts
15-Apr-19 17:43 36.420879 -119.574669 336 3975ft 154kts
15-Apr-19 17:44 36.460651 -119.595212 336 3975ft 154kts
15-Apr-19 17:45 36.500329 -119.615726 336 3976ft 154kts
15-Apr-19 17:46 36.540120 -119.636324 336 3979ft 154kts
15-Apr-19 17:47 36.579512 -119.656744 335 3985ft 153kts
15-Apr-19 17:48 36.618966 -119.677216 335 3991ft 153kts
15-Apr-19 17:49 36.658579 -119.697791 335 3994ft 153kts
15-Apr-19 17:50 36.698043 -119.718305 335 3991ft 153kts
15-Apr-19 17:51 36.737285 -119.738731 335 3986ft 153kts
15-Apr-19 17:52 36.776258 -119.759040 334 3981ft 152kts
15-Apr-19 17:53 36.815440 -119.779494 334 3978ft 152kts
15-Apr-19 17:54 36.854504 -119.799911 334 3980ft 152kts
15-Apr-19 17:55 36.892003 -119.823868 322 3983ft 151kts
15-Apr-19 17:56 36.925013 -119.855531 321 3985ft 151kts
15-Apr-19 17:57 36.958149 -119.887893 321 3989ft 150kts
15-Apr-19 17:58 36.991132 -119.920241 321 3992ft 150kts
15-Apr-19 17:59 37.023944 -119.952473 321 3996ft 150kts
15-Apr-19 18:00 37.056791 -119.984777 321 3999ft 150kts
15-Apr-19 18:01 37.089829 -120.017301 321 3951ft 152kts
15-Apr-19 18:02 37.122567 -120.049560 321 3949ft 150kts
15-Apr-19 18:03 37.155555 -120.082112 321 3949ft 150kts
15-Apr-19 18:04 37.188583 -120.114740 321 3949ft 151kts
15-Apr-19 18:05 37.222065 -120.147879 322 3949ft 151kts
15-Apr-19 18:06 37.255590 -120.181095 323 3949ft 154kts
15-Apr-19 18:07 37.289723 -120.214842 323 3949ft 156kts
15-Apr-19 18:08 37.324067 -120.248896 323 3949ft 157kts
15-Apr-19 18:09 37.358475 -120.283134 323 3950ft 157kts
15-Apr-19 18:10 37.392836 -120.317370 323 3954ft 156kts
15-Apr-19 18:11 37.426896 -120.351348 323 3959ft 155kts
15-Apr-19 18:12 37.460734 -120.385084 324 3965ft 154kts
15-Apr-19 18:13 37.494269 -120.418533 324 3970ft 152kts
15-Apr-19 18:14 37.527287 -120.451492 323 3973ft 150kts
15-Apr-19 18:15 37.559854 -120.484084 323 3974ft 148kts
15-Apr-19 18:16 37.592226 -120.516536 322 3974ft 148kts
15-Apr-19 18:17 37.625435 -120.549814 321 3977ft 154kts
15-Apr-19 18:18 37.659193 -120.583726 320 3980ft 155kts
15-Apr-19 18:19 37.693178 -120.617906 320 3973ft 156kts
15-Apr-19 18:20 37.726951 -120.651910 320 3972ft 156kts
15-Apr-19 18:21 37.761076 -120.686310 320 3970ft 156kts
15-Apr-19 18:22 37.795188 -120.720723 319 3971ft 156kts
15-Apr-19 18:23 37.829283 -120.755166 319 3977ft 156kts
15-Apr-19 18:24 37.863489 -120.789774 319 3983ft 157kts
15-Apr-19 18:25 37.897702 -120.824420 319 3989ft 157kts
15-Apr-19 18:26 37.931809 -120.859016 319 3993ft 155kts
15-Apr-19 18:27 37.965708 -120.893540 321 3993ft 156kts
15-Apr-19 18:28 37.999748 -120.928057 321 3992ft 155kts
15-Apr-19 18:29 38.031827 -120.963954 295 4000ft 153kts
15-Apr-19 18:30 38.047441 -121.014836 292 3992ft 154kts
15-Apr-19 18:31 38.062625 -121.065685 292 3992ft 153kts
15-Apr-19 18:32 38.077682 -121.116443 292 3991ft 153kts
15-Apr-19 18:33 38.092600 -121.167625 292 3991ft 153kts
15-Apr-19 18:34 38.113114 -121.215219 299 3997ft 153kts
15-Apr-19 18:35 38.137406 -121.260272 302 3992ft 153kts
15-Apr-19 18:36 38.162884 -121.304920 302 3992ft 157kts
15-Apr-19 18:37 38.189058 -121.350140 302 3991ft 158kts
15-Apr-19 18:38 38.215530 -121.395841 302 3992ft 159kts
15-Apr-19 18:39 38.241882 -121.441438 302 3992ft 159kts
15-Apr-19 18:40 38.268172 -121.487245 302 3342ft 157kts
15-Apr-19 18:41 38.293557 -121.532278 302 3089ft 155kts
15-Apr-19 18:42 38.318640 -121.576947 302 3085ft 154kts
15-Apr-19 18:43 38.345264 -121.618286 342 2478ft 150kts
15-Apr-19 18:44 38.381839 -121.603272 35 1762ft 139kts
15-Apr-19 18:45 38.413437 -121.576771 34 1482ft 137kts
15-Apr-19 18:46 38.445485 -121.550233 34 1588ft 111kts
15-Apr-19 18:47 38.471929 -121.528306 34 854ft 112kts
15-Apr-19 18:48 38.497596 -121.507046 34 235ft 99kts
15-Apr-19 18:49 38.511244 -121.496304 304 27ft 9kts
15-Apr-19 18:50 38.511356 -121.497336 270 27ft 10kts
15-Apr-19 18:51 38.514369 -121.498168 304 27ft 11kts
15-Apr-19 18:52 38.514729 -121.499380 317 27ft 0kts

Navigation Log

Ident Type
Flight plan parsing failed, navigation log unavailable